Time;durP1;ratioP1;P1;durP2;ratioP2;P2;SDS_P1;SDS_P2;PMS_P1;PMS_P2;Temp;Humidity;BMP_temperature;BMP_pressure;BME280_temperature;BME280_humidity;BME280_pressure;Samples;Min_cycle;Max_cycle;Signal;HPM_P1;HPM_P2
2022/06/02 00:01:45;;;;;;;12.25;7.13;;;24.30;63.20;;;;;;4983790;28;20101;-50
2022/06/02 00:04:20;;;;;;;12.80;7.78;;;24.30;63.20;;;;;;4995917;28;20123;-51
2022/06/02 00:06:57;;;;;;;11.27;6.07;;;24.30;63.10;;;;;;4993922;28;20030;-49
2022/06/02 00:09:26;;;;;;;9.80;6.47;;;24.20;63.10;;;;;;4981975;28;20534;-51
2022/06/02 00:12:25;;;;;;;7.82;6.13;;;24.10;63.10;;;;;;4976718;28;20074;-49
2022/06/02 00:15:06;;;;;;;19.35;7.57;;;24.10;63.20;;;;;;4976903;28;20031;-51
2022/06/02 00:17:34;;;;;;;16.20;8.05;;;24.00;63.30;;;;;;4984524;28;20549;-50
2022/06/02 00:20:05;;;;;;;10.15;7.13;;;23.90;63.20;;;;;;4977690;28;20168;-50
2022/06/02 00:23:01;;;;;;;11.77;6.47;;;23.90;63.50;;;;;;4987927;28;20022;-50
2022/06/02 00:25:35;;;;;;;11.52;6.80;;;23.90;63.70;;;;;;4983210;28;20026;-49
2022/06/02 00:28:08;;;;;;;13.00;7.45;;;23.80;63.80;;;;;;4993499;28;20061;-51
2022/06/02 00:30:46;;;;;;;14.05;7.72;;;23.80;64.00;;;;;;4965209;28;20057;-50
2022/06/02 00:33:37;;;;;;;17.00;7.63;;;23.70;64.00;;;;;;4982035;28;20404;-50
2022/06/02 00:36:47;;;;;;;12.35;7.85;;;23.60;64.20;;;;;;4983226;28;20034;-50
2022/06/02 00:39:16;;;;;;;11.75;7.13;;;23.60;64.50;;;;;;4920604;29;20127;-49
2022/06/02 00:41:54;;;;;;;13.18;7.03;;;23.50;64.70;;;;;;4981348;28;20109;-50
2022/06/02 00:44:31;;;;;;;;;;;23.40;64.70;;;;;;4994199;28;20123;-50
2022/06/02 00:47:08;;;;;;;15.40;6.60;;;23.30;65.20;;;;;;5000967;28;20595;-49
2022/06/02 00:49:40;;;;;;;10.63;7.00;;;23.30;65.30;;;;;;4994882;28;20058;-49
2022/06/02 00:52:11;;;;;;;6.90;4.95;;;23.20;65.30;;;;;;4996535;28;20022;-50
2022/06/02 00:57:43;;;;;;;9.20;5.43;;;23.20;65.30;;;;;;5005783;28;20037;-52
2022/06/02 01:00:19;;;;;;;11.00;5.33;;;23.20;65.00;;;;;;4995907;28;20034;-52
2022/06/02 01:02:53;;;;;;;8.73;5.22;;;23.10;64.90;;;;;;5001868;28;20029;-50
2022/06/02 01:05:44;;;;;;;11.18;5.53;;;23.10;65.00;;;;;;5006288;28;20041;-51
2022/06/02 01:08:18;;;;;;;13.52;6.22;;;23.10;65.00;;;;;;4967435;28;20520;-49
2022/06/02 01:11:03;;;;;;;9.43;4.93;;;23.00;65.20;;;;;;4998261;28;20303;-50
2022/06/02 01:13:51;;;;;;;12.55;5.78;;;22.90;65.30;;;;;;4994563;28;20114;-50
2022/06/02 01:16:29;;;;;;;8.75;5.32;;;22.90;65.40;;;;;;4994296;28;20088;-49
2022/06/02 01:19:19;;;;;;;8.43;5.43;;;22.90;65.30;;;;;;4995378;28;20058;-50
2022/06/02 01:22:17;;;;;;;10.63;5.70;;;22.80;65.20;;;;;;5000938;28;20411;-49
2022/06/02 01:25:00;;;;;;;8.23;5.68;;;22.70;66.10;;;;;;4996127;28;20049;-49
2022/06/02 01:27:52;;;;;;;9.90;6.05;;;22.50;66.40;;;;;;4999407;28;20027;-49
2022/06/02 01:30:49;;;;;;;14.18;6.55;;;22.40;66.80;;;;;;5003407;28;20101;-49
2022/06/02 01:33:23;;;;;;;10.70;6.70;;;22.40;66.70;;;;;;5007627;28;20537;-50
2022/06/02 01:35:57;;;;;;;12.20;7.60;;;22.40;66.60;;;;;;5001053;28;20514;-53
2022/06/02 01:38:32;;;;;;;10.23;6.68;;;22.30;66.70;;;;;;4987454;28;20065;-52
2022/06/02 01:41:33;;;;;;;10.90;7.25;;;22.30;66.50;;;;;;4974613;28;20107;-51
2022/06/02 01:44:19;;;;;;;15.05;8.48;;;22.30;66.40;;;;;;4883539;29;20025;-51
2022/06/02 01:47:04;;;;;;;8.27;7.03;;;22.40;66.70;;;;;;4982998;28;20442;-49
2022/06/02 01:49:36;;;;;;;13.55;8.07;;;22.30;66.80;;;;;;4989508;28;20026;-50
2022/06/02 01:52:16;;;;;;;13.40;8.82;;;22.30;66.80;;;;;;4992184;28;20071;-49
2022/06/02 01:55:11;;;;;;;15.73;8.13;;;22.30;66.80;;;;;;4984668;28;20507;-50
2022/06/02 01:57:48;;;;;;;14.25;8.10;;;22.20;66.70;;;;;;4983012;28;20027;-49
2022/06/02 02:00:21;;;;;;;11.98;8.30;;;22.20;66.80;;;;;;4961616;28;20121;-49
2022/06/02 02:02:49;;;;;;;11.45;7.13;;;22.20;66.80;;;;;;4991127;28;20031;-50
2022/06/02 02:05:29;;;;;;;8.95;7.55;;;22.20;66.90;;;;;;4993031;28;20499;-50
2022/06/02 02:08:08;;;;;;;14.93;7.30;;;22.10;67.10;;;;;;4993529;28;20034;-48
2022/06/02 02:11:08;;;;;;;9.20;6.65;;;22.00;67.30;;;;;;4988579;28;20503;-50
2022/06/02 02:14:18;;;;;;;11.90;6.95;;;22.00;67.30;;;;;;4980095;28;20045;-50
2022/06/02 02:17:12;;;;;;;9.63;7.28;;;22.00;67.30;;;;;;4954256;28;20050;-50
2022/06/02 02:19:55;;;;;;;16.08;8.18;;;21.90;67.70;;;;;;4993188;28;20399;-50
2022/06/02 02:22:46;;;;;;;13.27;8.30;;;21.90;67.70;;;;;;4989879;28;20423;-50
2022/06/02 02:25:21;;;;;;;15.75;7.55;;;21.80;67.70;;;;;;4990420;28;20190;-51
2022/06/02 02:28:07;;;;;;;12.57;7.93;;;21.80;67.60;;;;;;4988610;28;20443;-49
2022/06/02 02:30:45;;;;;;;10.65;7.90;;;21.80;67.70;;;;;;4977121;28;20506;-49
2022/06/02 02:33:29;;;;;;;11.32;7.28;;;21.80;67.80;;;;;;4992295;28;20042;-49
2022/06/02 02:36:06;;;;;;;12.30;8.07;;;21.70;67.50;;;;;;4992159;28;20553;-50
2022/06/02 02:39:14;;;;;;;10.55;7.45;;;21.80;67.60;;;;;;4990546;28;20068;-49
2022/06/02 02:41:46;;;;;;;14.07;8.40;;;21.70;67.60;;;;;;4962395;28;20081;-50
2022/06/02 02:44:22;;;;;;;11.98;8.60;;;21.70;67.70;;;;;;4992458;28;20494;-49
2022/06/02 02:47:04;;;;;;;17.83;8.85;;;21.60;68.10;;;;;;4978651;28;20089;-49
2022/06/02 02:49:36;;;;;;;14.13;8.18;;;21.50;68.50;;;;;;4973324;28;20034;-50
2022/06/02 02:52:49;;;;;;;11.07;8.82;;;21.40;68.60;;;;;;4977245;28;21652;-50
2022/06/02 02:55:29;;;;;;;16.77;9.63;;;21.40;68.90;;;;;;4886532;29;20048;-49
2022/06/02 02:58:10;;;;;;;13.18;9.13;;;21.30;68.90;;;;;;4970531;28;20185;-51
2022/06/02 03:00:39;;;;;;;13.52;8.25;;;21.30;68.80;;;;;;4981342;28;20022;-49
2022/06/02 03:03:12;;;;;;;13.35;9.27;;;21.30;68.60;;;;;;4975856;28;20485;-49
2022/06/02 03:05:56;;;;;;;11.07;8.10;;;21.40;68.60;;;;;;4972916;28;20034;-51
2022/06/02 03:08:36;;;;;;;10.23;7.53;;;21.30;68.60;;;;;;4973094;28;20472;-49
2022/06/02 03:11:31;;;;;;;12.20;8.75;;;21.30;68.60;;;;;;4963188;28;20065;-49
2022/06/02 03:14:21;;;;;;;14.45;8.35;;;21.30;68.60;;;;;;4977838;28;20034;-50
2022/06/02 03:16:58;;;;;;;13.52;8.13;;;21.40;68.40;;;;;;4992288;28;20089;-50
2022/06/02 03:19:40;;;;;;;13.60;7.95;;;21.30;68.50;;;;;;4977030;28;20026;-49
2022/06/02 03:22:30;;;;;;;11.70;7.82;;;21.30;68.50;;;;;;4972981;28;20054;-49
2022/06/02 03:25:04;;;;;;;14.23;8.77;;;21.20;68.90;;;;;;4986398;28;20034;-48
2022/06/02 03:27:45;;;;;;;12.95;8.60;;;21.20;68.90;;;;;;4992266;28;20144;-49
2022/06/02 03:30:20;;;;;;;10.48;8.75;;;21.20;68.90;;;;;;4989790;28;20483;-49
2022/06/02 03:33:08;;;;;;;14.15;8.70;;;21.20;68.80;;;;;;4972818;28;20062;-49
2022/06/02 03:35:33;;;;;;;;;;;21.10;69.00;;;;;;4987860;28;20374;-49
2022/06/02 03:37:59;;;;;;;14.07;8.88;;;21.10;68.80;;;;;;4980472;28;20005;-50
2022/06/02 03:40:43;;;;;;;14.83;9.50;;;21.00;69.00;;;;;;4986997;28;20066;-49
2022/06/02 03:43:09;;;;;;;15.32;9.20;;;21.00;69.20;;;;;;4992163;28;20027;-49
2022/06/02 03:45:49;;;;;;;20.83;10.10;;;20.90;69.30;;;;;;4988912;28;20534;-49
2022/06/02 03:48:38;;;;;;;18.40;9.80;;;21.00;69.40;;;;;;4972728;28;20027;-49
2022/06/02 03:51:16;;;;;;;15.95;9.05;;;21.00;69.50;;;;;;4972457;28;20103;-50
2022/06/02 03:54:05;;;;;;;22.70;10.93;;;21.00;69.40;;;;;;4981660;28;20030;-48
2022/06/02 03:56:46;;;;;;;14.07;10.07;;;21.00;69.40;;;;;;4979562;28;20546;-50
2022/06/02 03:59:41;;;;;;;15.57;9.35;;;21.00;69.30;;;;;;4991930;28;20030;-49
2022/06/02 04:02:13;;;;;;;13.23;10.30;;;21.00;69.20;;;;;;4971489;28;20400;-49
2022/06/02 04:04:58;;;;;;;16.50;9.57;;;21.00;69.20;;;;;;4991863;28;20590;-49
2022/06/02 04:07:33;;;;;;;15.48;9.38;;;21.00;69.30;;;;;;4991916;28;20023;-49
2022/06/02 04:10:25;;;;;;;11.23;8.80;;;20.90;69.70;;;;;;4991906;28;20027;-51
2022/06/02 04:15:54;;;;;;;10.57;9.18;;;20.80;70.00;;;;;;4991677;28;20042;-49
2022/06/02 04:18:38;;;;;;;12.07;8.77;;;20.80;70.10;;;;;;4991886;28;20110;-49
2022/06/02 04:21:23;;;;;;;11.38;8.30;;;20.70;70.20;;;;;;4992385;28;20065;-49
2022/06/02 04:23:49;;;;;;;17.05;9.48;;;20.60;70.70;;;;;;4991787;28;20034;-51
2022/06/02 04:26:45;;;;;;;13.20;8.90;;;20.60;70.70;;;;;;4991660;28;20030;-50
2022/06/02 04:29:54;;;;;;;12.00;8.38;;;20.70;70.50;;;;;;4991728;28;20022;-51
2022/06/02 04:32:42;;;;;;;11.60;9.07;;;20.80;70.50;;;;;;4974532;28;20042;-50
2022/06/02 04:35:30;;;;;;;15.90;9.57;;;20.80;70.10;;;;;;4991551;28;20030;-52
2022/06/02 04:38:14;;;;;;;17.25;10.13;;;20.90;70.20;;;;;;4992021;28;20042;-49
2022/06/02 04:40:57;;;;;;;18.25;9.23;;;21.00;70.00;;;;;;4994218;28;20629;-50
2022/06/02 04:43:34;;;;;;;17.90;9.48;;;21.00;69.90;;;;;;4995193;28;20035;-52
2022/06/02 04:46:22;;;;;;;12.55;9.88;;;21.00;69.80;;;;;;4994960;28;20097;-50
2022/06/02 04:49:20;;;;;;;12.68;8.30;;;21.00;69.90;;;;;;4994925;28;20557;-49
2022/06/02 04:52:03;;;;;;;14.47;9.67;;;20.90;70.10;;;;;;4995105;28;20050;-50
2022/06/02 04:54:50;;;;;;;13.88;9.23;;;20.90;70.40;;;;;;4994901;28;20030;-50
2022/06/02 04:57:33;;;;;;;15.88;9.38;;;20.90;70.70;;;;;;4994924;28;20052;-51
2022/06/02 05:00:18;;;;;;;16.95;10.38;;;21.00;70.70;;;;;;4994838;28;20023;-52
2022/06/02 05:02:49;;;;;;;15.75;8.35;;;21.00;71.40;;;;;;4994961;28;20398;-49
2022/06/02 05:05:32;;;;;;;12.55;8.82;;;21.00;70.80;;;;;;4994766;28;20065;-51
2022/06/02 05:08:32;;;;;;;14.30;8.82;;;21.10;70.60;;;;;;4994557;28;20030;-49
2022/06/02 05:11:36;;;;;;;10.93;8.27;;;21.20;70.50;;;;;;4994685;28;20431;-52
2022/06/02 05:14:17;;;;;;;11.63;9.45;;;21.20;70.50;;;;;;4994593;28;20041;-51
2022/06/02 05:17:10;;;;;;;16.13;9.57;;;21.10;70.90;;;;;;4994851;28;20038;-49
2022/06/02 05:19:54;;;;;;;13.23;8.95;;;21.10;71.10;;;;;;4994468;28;20457;-49
2022/06/02 05:22:35;;;;;;;14.38;9.05;;;21.20;70.90;;;;;;4994611;28;20026;-53
2022/06/02 05:25:12;;;;;;;12.80;9.25;;;21.30;70.90;;;;;;4994193;28;20030;-49
2022/06/02 05:27:55;;;;;;;9.37;8.37;;;21.30;70.40;;;;;;4976940;28;20034;-49
2022/06/02 05:30:56;;;;;;;14.20;9.30;;;21.40;70.40;;;;;;4994315;28;20297;-50
2022/06/02 05:33:40;;;;;;;16.35;8.35;;;21.50;70.50;;;;;;4977182;28;20089;-50
2022/06/02 05:36:18;;;;;;;15.23;9.43;;;21.50;70.40;;;;;;4976487;28;20045;-50
2022/06/02 05:39:24;;;;;;;15.27;8.98;;;21.60;70.00;;;;;;4993970;28;20563;-49
2022/06/02 05:42:13;;;;;;;12.57;9.10;;;21.60;70.40;;;;;;4994096;28;20121;-50
2022/06/02 05:44:48;;;;;;;12.95;9.02;;;21.70;70.40;;;;;;4993957;28;20022;-49
2022/06/02 05:47:27;;;;;;;15.20;9.30;;;21.70;70.40;;;;;;4994037;28;20026;-50
2022/06/02 05:49:53;;;;;;;15.35;9.88;;;21.80;70.40;;;;;;4993531;28;20073;-52
2022/06/02 05:52:35;;;;;;;15.40;8.83;;;21.80;70.00;;;;;;4993917;28;20411;-52
2022/06/02 05:55:04;;;;;;;15.32;9.05;;;21.90;69.70;;;;;;4993669;28;20105;-52
2022/06/02 05:57:34;;;;;;;13.75;9.45;;;22.00;69.70;;;;;;4993831;28;20049;-49
2022/06/02 06:00:20;;;;;;;14.95;9.40;;;22.10;69.20;;;;;;4993652;28;20100;-53
2022/06/02 06:03:06;;;;;;;17.52;9.20;;;22.20;69.10;;;;;;4993591;28;20110;-50
2022/06/02 06:05:42;;;;;;;15.65;10.57;;;22.20;69.40;;;;;;4993483;28;20030;-50
2022/06/02 06:08:36;;;;;;;12.23;8.88;;;22.20;69.10;;;;;;4993608;28;20063;-53
2022/06/02 06:11:39;;;;;;;12.95;9.93;;;22.20;69.20;;;;;;4993526;28;20031;-49
2022/06/02 06:14:19;;;;;;;13.10;8.68;;;22.30;69.30;;;;;;4976101;28;20031;-50
2022/06/02 06:16:59;;;;;;;12.23;9.75;;;22.30;69.10;;;;;;4993113;28;20521;-50
2022/06/02 06:19:51;;;;;;;11.93;9.35;;;22.40;68.40;;;;;;4993141;28;20031;-53
2022/06/02 06:22:44;;;;;;;18.90;11.32;;;22.50;67.80;;;;;;4975807;28;20049;-50
2022/06/02 06:25:24;;;;;;;16.60;9.13;;;22.70;67.80;;;;;;4993131;28;20030;-49
2022/06/02 06:28:02;;;;;;;13.82;10.00;;;22.60;67.80;;;;;;4993051;28;20030;-50
2022/06/02 06:30:36;;;;;;;;;;;22.70;67.60;;;;;;4993575;28;20495;-49
2022/06/02 06:33:34;;;;;;;18.13;12.35;;;22.70;67.60;;;;;;4993069;28;19928;-52
2022/06/02 06:36:17;;;;;;;18.85;11.35;;;22.70;67.50;;;;;;4992754;28;20034;-49
2022/06/02 06:39:01;;;;;;;16.73;10.60;;;22.80;66.90;;;;;;4992939;28;20042;-50
2022/06/02 06:41:40;;;;;;;14.85;11.57;;;22.90;67.20;;;;;;4993030;28;20105;-51
2022/06/02 06:44:25;;;;;;;16.88;11.90;;;23.00;66.60;;;;;;4975726;28;20428;-51
2022/06/02 06:47:30;;;;;;;23.40;11.18;;;23.20;66.10;;;;;;4975302;28;20399;-49
2022/06/02 06:50:26;;;;;;;15.13;9.18;;;23.30;65.30;;;;;;4992667;28;20068;-50
2022/06/02 06:53:17;;;;;;;13.88;9.75;;;23.40;64.10;;;;;;4975316;28;20629;-50
2022/06/02 06:55:58;;;;;;;13.15;10.02;;;23.50;64.00;;;;;;4992595;28;20022;-52
2022/06/02 06:58:36;;;;;;;10.88;9.35;;;23.50;64.60;;;;;;4992507;28;20041;-52
2022/06/02 07:01:18;;;;;;;22.08;10.57;;;23.50;64.60;;;;;;4992622;28;20022;-53
2022/06/02 07:04:11;;;;;;;17.40;9.75;;;23.60;64.10;;;;;;4992075;28;20516;-51
2022/06/02 07:06:55;;;;;;;15.35;9.70;;;23.60;64.00;;;;;;4992320;28;20518;-49
2022/06/02 07:09:41;;;;;;;12.50;10.35;;;23.60;63.90;;;;;;4992573;28;20034;-50
2022/06/02 07:15:16;;;;;;;15.68;11.52;;;23.70;63.70;;;;;;4992852;28;20101;-49
2022/06/02 07:18:03;;;;;;;14.23;12.20;;;23.80;64.80;;;;;;4992429;28;20018;-52
2022/06/02 07:20:46;;;;;;;20.75;12.45;;;23.80;63.90;;;;;;4992673;28;20026;-52
2022/06/02 07:23:17;;;;;;;16.73;12.07;;;23.80;64.10;;;;;;4992394;28;20022;-51
2022/06/02 07:26:12;;;;;;;19.00;13.25;;;23.90;64.20;;;;;;4974875;28;20491;-49
2022/06/02 07:29:05;;;;;;;18.58;14.40;;;24.00;64.00;;;;;;4971258;28;20088;-51
2022/06/02 07:31:43;;;;;;;22.60;15.30;;;24.10;63.90;;;;;;4992397;28;20395;-51
2022/06/02 07:34:27;;;;;;;18.40;15.32;;;24.10;65.00;;;;;;4992294;28;20487;-50
2022/06/02 07:37:29;;;;;;;21.35;16.45;;;24.10;64.20;;;;;;4992163;28;20030;-53
2022/06/02 07:40:21;;;;;;;19.88;13.98;;;24.00;64.30;;;;;;4992144;28;20031;-50
2022/06/02 07:42:47;;;;;;;22.98;14.00;;;24.10;64.60;;;;;;4992339;28;20037;-50
2022/06/02 07:45:18;;;;;;;22.75;14.23;;;24.20;63.90;;;;;;4992058;28;20026;-49
2022/06/02 07:48:22;;;;;;;21.27;15.43;;;24.40;62.80;;;;;;4992126;28;20372;-54
2022/06/02 07:51:06;;;;;;;18.90;16.83;;;24.50;63.40;;;;;;4977561;28;20045;-51
2022/06/02 07:54:05;;;;;;;20.27;17.50;;;24.50;62.90;;;;;;4992428;28;20395;-52
2022/06/02 07:56:46;;;;;;;29.55;19.25;;;24.50;61.60;;;;;;4992156;28;20595;-50
2022/06/02 07:59:20;;;;;;;24.88;20.90;;;24.50;61.90;;;;;;4974509;28;20125;-51
2022/06/02 08:01:50;;;;;;;22.05;19.17;;;24.60;61.50;;;;;;4991927;28;20034;-50
2022/06/02 08:04:24;;;;;;;21.95;18.23;;;24.70;61.70;;;;;;4992175;28;20030;-51
2022/06/02 08:06:58;;;;;;;23.60;17.90;;;24.90;62.30;;;;;;4991883;28;20085;-54
2022/06/02 08:10:05;;;;;;;20.52;17.25;;;24.90;62.10;;;;;;4991822;28;20030;-53
2022/06/02 08:12:43;;;;;;;22.52;20.23;;;25.00;61.40;;;;;;4992020;28;20030;-56
2022/06/02 08:15:30;;;;;;;25.45;19.38;;;25.00;61.40;;;;;;4995176;28;20494;-55
2022/06/02 08:18:00;;;;;;;22.55;20.23;;;25.10;61.40;;;;;;4995470;28;20026;-53
2022/06/02 08:20:34;;;;;;;25.33;20.63;;;25.00;60.70;;;;;;4995477;28;20056;-55
2022/06/02 08:23:23;;;;;;;26.88;23.08;;;25.10;60.90;;;;;;4995517;28;20033;-53
2022/06/02 08:25:57;;;;;;;27.48;21.92;;;25.20;60.10;;;;;;4995231;28;20514;-55
2022/06/02 08:28:46;;;;;;;27.52;20.88;;;25.30;60.50;;;;;;4995720;28;20109;-53
2022/06/02 08:31:20;;;;;;;25.38;20.67;;;25.40;60.60;;;;;;4995437;28;20546;-53
2022/06/02 08:34:25;;;;;;;25.35;21.80;;;25.40;60.30;;;;;;4995314;28;20038;-53
2022/06/02 08:37:03;;;;;;;27.55;22.38;;;25.50;59.40;;;;;;4977503;28;20084;-55
2022/06/02 08:39:51;;;;;;;27.65;24.70;;;25.40;60.90;;;;;;4995030;28;20033;-53
2022/06/02 08:42:38;;;;;;;25.77;22.50;;;25.60;59.90;;;;;;4995341;28;20034;-53
2022/06/02 08:45:21;;;;;;;27.87;25.00;;;25.70;59.70;;;;;;4994955;28;20496;-53
2022/06/02 08:48:30;;;;;;;25.95;23.35;;;25.80;59.50;;;;;;4977464;28;20037;-54
2022/06/02 08:51:16;;;;;;;28.67;24.48;;;26.00;59.70;;;;;;4995064;28;20088;-53
2022/06/02 08:53:52;;;;;;;25.83;22.48;;;26.00;60.50;;;;;;4994949;28;20056;-53
2022/06/02 08:56:55;;;;;;;29.33;25.48;;;25.90;59.30;;;;;;4994692;28;20109;-53
2022/06/02 08:59:29;;;;;;;28.92;25.35;;;26.00;58.40;;;;;;4977141;28;20031;-53
2022/06/02 09:02:22;;;;;;;33.80;25.00;;;26.10;58.20;;;;;;4994783;28;20026;-53
2022/06/02 09:05:25;;;;;;;32.63;25.30;;;26.20;57.60;;;;;;4994682;28;20022;-53
2022/06/02 09:08:39;;;;;;;31.05;27.10;;;26.20;57.70;;;;;;4994634;28;20026;-54
2022/06/02 09:11:26;;;;;;;36.08;28.02;;;26.40;56.30;;;;;;4908077;28;20032;-55
2022/06/02 09:14:01;;;;;;;29.37;26.30;;;26.40;57.00;;;;;;4994523;28;20394;-53
2022/06/02 09:16:57;;;;;;;30.63;27.52;;;26.40;57.10;;;;;;4994237;28;20281;-55
2022/06/02 09:19:41;;;;;;;30.83;27.52;;;26.40;57.30;;;;;;4994436;28;20022;-53
2022/06/02 09:22:28;;;;;;;31.70;27.40;;;26.60;57.20;;;;;;4994491;28;20092;-53
2022/06/02 09:25:28;;;;;;;31.67;28.38;;;26.70;56.80;;;;;;4993575;28;20050;-54
2022/06/02 09:28:21;;;;;;;34.42;28.05;;;26.80;55.70;;;;;;4994198;28;20395;-53
2022/06/02 09:31:08;;;;;;;31.73;27.25;;;26.90;56.00;;;;;;4994231;28;20065;-53
2022/06/02 09:33:54;;;;;;;36.97;31.10;;;27.00;56.30;;;;;;4994163;28;20029;-52
2022/06/02 09:37:01;;;;;;;36.72;30.20;;;27.10;54.90;;;;;;4976519;28;20066;-53
2022/06/02 09:39:58;;;;;;;34.45;30.83;;;27.10;55.90;;;;;;4980889;28;20050;-53
2022/06/02 09:42:43;;;;;;;45.17;31.40;;;27.30;56.20;;;;;;4994451;28;20022;-53
2022/06/02 09:45:20;;;;;;;35.10;31.35;;;27.50;54.50;;;;;;4993768;28;20475;-53
2022/06/02 09:47:49;;;;;;;;;;;27.60;55.30;;;;;;4994288;28;20034;-53
2022/06/02 09:50:25;;;;;;;33.58;29.90;;;27.80;54.40;;;;;;4993877;28;20409;-53
2022/06/02 09:53:42;;;;;;;33.85;30.20;;;27.90;54.30;;;;;;4994020;28;20076;-53
2022/06/02 09:56:44;;;;;;;34.30;29.83;;;28.20;53.30;;;;;;4940265;28;20046;-54
2022/06/02 09:59:48;;;;;;;31.98;28.58;;;28.30;52.20;;;;;;4993539;28;20478;-56
2022/06/02 10:02:30;;;;;;;34.33;30.15;;;28.40;52.50;;;;;;4895652;29;20379;-54
2022/06/02 10:05:25;;;;;;;33.88;30.05;;;28.50;51.60;;;;;;4986138;28;20474;-53
2022/06/02 10:08:06;;;;;;;34.35;28.88;;;28.70;51.60;;;;;;4993440;28;20483;-53
2022/06/02 10:11:01;;;;;;;40.17;31.70;;;28.70;51.50;;;;;;4993557;28;20089;-54
2022/06/02 10:13:45;;;;;;;33.97;30.50;;;28.60;51.10;;;;;;4947906;28;20566;-54
2022/06/02 10:16:29;;;;;;;32.95;28.65;;;28.50;51.60;;;;;;4993062;28;20102;-56
2022/06/02 10:19:12;;;;;;;32.80;29.55;;;28.50;52.00;;;;;;4975878;28;20042;-56
2022/06/02 10:21:38;;;;;;;38.13;31.70;;;28.50;52.70;;;;;;4993256;28;20038;-56
2022/06/02 10:24:14;;;;;;;38.13;30.52;;;28.60;51.80;;;;;;4993258;28;20025;-56
2022/06/02 10:27:11;;;;;;;32.55;28.10;;;28.70;52.00;;;;;;4993042;28;20046;-56
2022/06/02 10:30:11;;;;;;;33.63;30.27;;;28.80;51.40;;;;;;4992908;28;20053;-56
2022/06/02 10:32:49;;;;;;;33.38;29.85;;;29.00;51.50;;;;;;4993146;28;20035;-53
2022/06/02 10:35:48;;;;;;;34.97;29.73;;;29.10;49.90;;;;;;4992790;28;20030;-53
2022/06/02 10:38:45;;;;;;;33.60;29.00;;;29.10;50.60;;;;;;4992659;28;20022;-53
2022/06/02 10:41:31;;;;;;;32.63;29.02;;;29.10;48.80;;;;;;4993000;28;20105;-53
2022/06/02 10:44:19;;;;;;;33.17;29.15;;;29.00;48.60;;;;;;4992833;28;20032;-53
2022/06/02 10:47:06;;;;;;;30.55;27.27;;;28.90;50.10;;;;;;4992902;28;20054;-50
2022/06/02 10:49:53;;;;;;;32.72;28.85;;;29.10;50.50;;;;;;4977833;28;20509;-51
2022/06/02 10:52:38;;;;;;;34.13;29.90;;;29.10;49.70;;;;;;4992450;28;20030;-51
2022/06/02 10:55:16;;;;;;;33.10;29.58;;;29.20;49.00;;;;;;4978674;28;20220;-51
2022/06/02 10:58:09;;;;;;;27.98;25.02;;;29.20;48.90;;;;;;4973239;28;20026;-51
2022/06/02 11:01:07;;;;;;;31.70;28.40;;;29.30;49.50;;;;;;4992659;28;20098;-51
2022/06/02 11:03:51;;;;;;;;;;;29.30;48.40;;;;;;4991397;28;20025;-50
2022/06/02 11:06:32;;;;;;;32.25;28.10;;;29.20;49.30;;;;;;4975107;28;19910;-51
2022/06/02 11:09:33;;;;;;;32.10;27.05;;;29.40;49.80;;;;;;4973511;28;20495;-51
2022/06/02 11:12:04;;;;;;;29.02;25.85;;;29.70;48.60;;;;;;4943752;28;20046;-52
2022/06/02 11:14:42;;;;;;;28.33;25.25;;;30.00;48.90;;;;;;4990260;28;20499;-52
2022/06/02 11:17:18;;;;;;;31.40;28.15;;;30.10;47.70;;;;;;4989845;28;20038;-51
2022/06/02 11:19:52;;;;;;;30.40;26.30;;;30.10;47.50;;;;;;4992206;28;20034;-54
2022/06/02 11:22:41;;;;;;;30.02;26.80;;;30.20;48.10;;;;;;4991131;28;20037;-53
2022/06/02 11:25:46;;;;;;;34.30;27.83;;;30.30;46.40;;;;;;4983662;28;20077;-52
2022/06/02 11:28:42;;;;;;;36.00;27.25;;;30.30;47.60;;;;;;4992238;28;20030;-52
2022/06/02 11:31:35;;;;;;;31.98;28.83;;;30.40;47.90;;;;;;4990992;28;20507;-53
2022/06/02 11:34:16;;;;;;;31.98;28.02;;;30.60;47.80;;;;;;4986088;28;20034;-53
2022/06/02 11:37:00;;;;;;;28.10;25.15;;;30.70;48.10;;;;;;4972806;28;20116;-54
2022/06/02 11:39:35;;;;;;;26.40;23.48;;;30.90;47.30;;;;;;4982647;28;20074;-54
2022/06/02 11:42:12;;;;;;;26.88;24.00;;;31.10;46.30;;;;;;4979513;28;20098;-53
2022/06/02 11:45:30;;;;;;;26.70;23.67;;;31.30;45.50;;;;;;4984143;28;20050;-54
2022/06/02 11:48:04;;;;;;;28.05;25.05;;;31.50;45.10;;;;;;4938671;28;20042;-54
2022/06/02 11:51:08;;;;;;;31.58;24.83;;;31.50;45.20;;;;;;4992396;28;20031;-54
2022/06/02 11:53:49;;;;;;;24.83;22.25;;;31.60;44.60;;;;;;4969432;28;20038;-54
2022/06/02 11:56:26;;;;;;;23.35;20.90;;;31.70;44.50;;;;;;4986691;28;20144;-56
2022/06/02 11:59:13;;;;;;;26.42;22.85;;;31.80;45.00;;;;;;4987911;28;20439;-54
2022/06/02 12:01:59;;;;;;;25.20;22.70;;;32.00;44.60;;;;;;4986813;28;20033;-51
2022/06/02 12:05:02;;;;;;;22.98;20.48;;;32.00;44.40;;;;;;4992887;28;20399;-51
2022/06/02 12:07:54;;;;;;;25.15;22.48;;;32.00;44.10;;;;;;4995739;28;20109;-51
2022/06/02 12:10:26;;;;;;;23.10;20.75;;;31.90;42.10;;;;;;4995739;28;20447;-51
2022/06/02 12:13:25;;;;;;;27.35;20.83;;;31.40;42.80;;;;;;4982817;28;20026;-50
2022/06/02 12:16:24;;;;;;;19.30;16.70;;;31.40;43.90;;;;;;4983226;28;20030;-51
2022/06/02 12:18:59;;;;;;;23.48;18.08;;;31.80;43.10;;;;;;4977310;28;20031;-51
2022/06/02 12:21:46;;;;;;;21.88;19.67;;;32.00;43.70;;;;;;4994535;28;20431;-51
2022/06/02 12:24:23;;;;;;;22.15;19.77;;;32.10;42.90;;;;;;4992096;28;20121;-51
2022/06/02 12:27:11;;;;;;;23.40;20.85;;;32.20;42.10;;;;;;4977717;28;20085;-51
2022/06/02 12:30:04;;;;;;;21.88;16.80;;;32.20;43.20;;;;;;4986552;28;20118;-52
2022/06/02 12:32:33;;;;;;;20.70;17.90;;;32.20;43.00;;;;;;4977705;28;20030;-51
2022/06/02 12:35:16;;;;;;;19.98;17.95;;;32.30;43.50;;;;;;4977901;28;20038;-51
2022/06/02 12:38:03;;;;;;;26.15;20.88;;;32.40;43.40;;;;;;4994821;28;20073;-51
2022/06/02 12:40:47;;;;;;;22.27;19.88;;;32.60;43.40;;;;;;4990020;28;20089;-51
2022/06/02 12:43:44;;;;;;;23.02;19.48;;;32.70;42.90;;;;;;4975985;28;20050;-51
2022/06/02 12:46:23;;;;;;;20.88;18.75;;;32.80;40.80;;;;;;4970306;28;20117;-51
2022/06/02 12:48:54;;;;;;;21.63;18.30;;;32.90;42.30;;;;;;4988418;28;20113;-51
2022/06/02 12:51:30;;;;;;;19.52;17.52;;;33.10;41.10;;;;;;4994954;28;20038;-51
2022/06/02 12:54:20;;;;;;;19.25;15.90;;;33.20;42.20;;;;;;4994971;28;20098;-51
2022/06/02 12:57:04;;;;;;;19.85;18.02;;;33.30;41.60;;;;;;4977897;28;20047;-51
2022/06/02 13:00:13;;;;;;;21.50;19.30;;;33.50;41.00;;;;;;4974794;28;20033;-51
2022/06/02 13:03:22;;;;;;;21.65;17.55;;;33.60;40.50;;;;;;4975111;28;20035;-51
2022/06/02 13:05:48;;;;;;;18.25;16.40;;;33.70;40.40;;;;;;4975124;28;20045;-50
2022/06/02 13:08:35;;;;;;;20.00;18.00;;;33.90;41.20;;;;;;4986189;28;20038;-51
2022/06/02 13:11:04;;;;;;;;;;;34.30;40.60;;;;;;4978127;28;20030;-52
2022/06/02 13:13:35;;;;;;;17.70;15.07;;;34.40;39.80;;;;;;4975254;28;20363;-51
2022/06/02 13:16:35;;;;;;;20.13;17.92;;;34.70;39.20;;;;;;4984674;28;20497;-52
2022/06/02 13:19:22;;;;;;;19.60;15.85;;;35.10;37.90;;;;;;4978175;28;20092;-51
2022/06/02 13:22:11;;;;;;;17.98;14.25;;;35.60;37.80;;;;;;4991621;28;20077;-52
2022/06/02 13:24:46;;;;;;;18.35;15.32;;;35.90;37.50;;;;;;4974771;28;20022;-51
2022/06/02 13:27:23;;;;;;;18.73;16.83;;;36.50;36.20;;;;;;4974782;28;20559;-52
2022/06/02 13:30:04;;;;;;;17.52;14.40;;;37.20;35.80;;;;;;4981666;28;20034;-51
2022/06/02 13:33:07;;;;;;;20.60;14.30;;;38.00;35.40;;;;;;4990323;28;20030;-51
2022/06/02 13:36:03;;;;;;;16.58;14.88;;;38.70;33.80;;;;;;4988006;28;20027;-51
2022/06/02 13:38:51;;;;;;;16.20;13.07;;;39.00;32.80;;;;;;4974522;28;20496;-52
2022/06/02 13:41:28;;;;;;;15.45;13.80;;;39.80;32.10;;;;;;4991028;28;20538;-51
2022/06/02 13:44:18;;;;;;;14.95;13.35;;;40.60;31.80;;;;;;4994138;28;20026;-51
2022/06/02 13:47:25;;;;;;;15.90;13.40;;;41.30;31.00;;;;;;4978241;28;20511;-52
2022/06/02 13:50:19;;;;;;;13.48;11.13;;;42.40;30.00;;;;;;4907306;29;20595;-49
2022/06/02 13:53:04;;;;;;;12.63;11.38;;;43.40;29.50;;;;;;4933617;29;20075;-51
2022/06/02 13:58:45;;;;;;;13.00;11.40;;;44.70;28.70;;;;;;4974069;28;20077;-50
2022/06/02 14:01:35;;;;;;;16.83;12.95;;;45.50;27.60;;;;;;4974535;28;20019;-49
2022/06/02 14:04:46;;;;;;;13.80;12.38;;;46.00;26.90;;;;;;4974029;28;20023;-50
2022/06/02 14:07:49;;;;;;;13.82;12.43;;;46.50;27.50;;;;;;4966488;28;20065;-46
2022/06/02 14:10:45;;;;;;;15.32;12.23;;;46.70;26.60;;;;;;4975683;28;20030;-46
2022/06/02 14:13:34;;;;;;;13.15;11.75;;;46.90;26.60;;;;;;4992156;28;20449;-46
2022/06/02 14:16:12;;;;;;;15.02;12.20;;;47.20;26.60;;;;;;4978780;28;20508;-46